createdAt,value
2023-01-19T00:00:58.145Z,11.90
2023-01-19T00:03:25.997Z,12.13
2023-01-19T00:05:54.541Z,11.02
2023-01-19T00:08:22.457Z,11.88
2023-01-19T00:10:52.123Z,11.75
2023-01-19T00:13:20.656Z,12.05
2023-01-19T00:15:50.041Z,11.05
2023-01-19T00:18:18.411Z,11.50
2023-01-19T00:20:46.420Z,10.63
2023-01-19T00:23:15.061Z,10.93
2023-01-19T00:25:43.861Z,10.85
2023-01-19T00:28:13.113Z,10.95
2023-01-19T00:30:41.469Z,11.50
2023-01-19T00:33:11.497Z,10.15
2023-01-19T00:35:40.348Z,12.27
2023-01-19T00:38:08.241Z,11.65
2023-01-19T00:40:36.131Z,11.35
2023-01-19T00:43:04.203Z,10.40
2023-01-19T00:45:32.415Z,11.27
2023-01-19T00:48:00.254Z,10.75
2023-01-19T00:50:31.160Z,11.95
2023-01-19T00:53:01.494Z,11.43
2023-01-19T00:55:29.942Z,10.18
2023-01-19T00:57:58.166Z,11.23
2023-01-19T01:00:26.642Z,11.30
2023-01-19T01:02:55.827Z,11.30
2023-01-19T01:05:23.799Z,10.13
2023-01-19T01:07:53.087Z,9.27
2023-01-19T01:10:22.669Z,10.52
2023-01-19T01:12:55.968Z,9.32
2023-01-19T01:15:27.824Z,10.88
2023-01-19T01:17:55.921Z,9.27
2023-01-19T01:20:25.503Z,9.93
2023-01-19T01:22:55.424Z,9.88
2023-01-19T01:25:25.006Z,9.85
2023-01-19T01:27:53.136Z,9.13
2023-01-19T01:30:21.761Z,9.45
2023-01-19T01:32:49.801Z,9.65
2023-01-19T01:35:18.152Z,9.75
2023-01-19T01:37:46.058Z,9.43
2023-01-19T01:40:17.862Z,9.32
2023-01-19T01:45:30.619Z,8.75
2023-01-19T01:48:01.599Z,9.38
2023-01-19T01:50:31.632Z,10.93
2023-01-19T01:53:07.090Z,10.32
2023-01-19T01:55:40.416Z,11.23
2023-01-19T01:58:09.832Z,10.50
2023-01-19T02:00:52.262Z,9.27
2023-01-19T02:03:20.282Z,11.00
2023-01-19T02:05:48.474Z,10.32
2023-01-19T02:08:37.269Z,11.00
2023-01-19T02:11:25.089Z,9.80
2023-01-19T02:13:53.135Z,10.43
2023-01-19T02:16:21.065Z,9.88
2023-01-19T02:18:49.504Z,12.40
2023-01-19T02:21:20.853Z,10.30
2023-01-19T02:23:52.551Z,10.57
2023-01-19T02:26:22.587Z,11.23
2023-01-19T02:28:53.571Z,11.85
2023-01-19T02:31:21.435Z,11.50
2023-01-19T02:33:49.227Z,11.77
2023-01-19T02:36:18.238Z,13.13
2023-01-19T02:38:47.552Z,11.88
2023-01-19T02:41:20.801Z,12.75
2023-01-19T02:43:49.791Z,12.95
2023-01-19T02:46:17.957Z,11.82
2023-01-19T02:48:45.748Z,13.10
2023-01-19T02:51:17.061Z,12.57
2023-01-19T02:54:04.733Z,13.13
2023-01-19T02:56:47.271Z,11.48
2023-01-19T02:59:24.518Z,12.35
2023-01-19T03:02:09.065Z,12.68
2023-01-19T03:04:46.130Z,11.60
2023-01-19T03:07:16.084Z,11.68
2023-01-19T03:09:51.127Z,12.00
2023-01-19T03:12:27.567Z,13.23
2023-01-19T03:14:59.744Z,12.68
2023-01-19T03:17:29.684Z,12.00
2023-01-19T03:19:59.066Z,13.15
2023-01-19T03:22:29.099Z,13.13
2023-01-19T03:25:01.497Z,12.43
2023-01-19T03:27:32.613Z,14.48
2023-01-19T03:30:02.791Z,10.23
2023-01-19T03:32:35.708Z,13.82
2023-01-19T03:35:05.647Z,13.98
2023-01-19T03:37:35.603Z,12.73
2023-01-19T03:40:03.441Z,12.93
2023-01-19T03:42:33.244Z,13.63
2023-01-19T03:45:01.735Z,16.33
2023-01-19T03:47:29.991Z,13.60
2023-01-19T03:49:58.472Z,14.13
2023-01-19T03:52:30.381Z,12.90
2023-01-19T03:54:58.482Z,15.10
2023-01-19T03:57:26.692Z,13.05
2023-01-19T03:59:55.995Z,14.32
2023-01-19T04:02:24.155Z,13.48
2023-01-19T04:04:52.348Z,13.27
2023-01-19T04:07:20.221Z,14.10
2023-01-19T04:09:48.487Z,13.48
2023-01-19T04:12:16.466Z,13.43
2023-01-19T04:14:44.241Z,13.68
2023-01-19T04:17:14.244Z,13.20
2023-01-19T04:19:42.427Z,14.07
2023-01-19T04:22:10.555Z,14.80
2023-01-19T04:24:38.340Z,14.30
2023-01-19T04:27:06.258Z,14.80
2023-01-19T04:29:34.065Z,13.73
2023-01-19T04:32:01.898Z,14.18
2023-01-19T04:34:31.172Z,14.45
2023-01-19T04:36:59.100Z,13.65
2023-01-19T04:39:27.666Z,14.18
2023-01-19T04:41:57.488Z,14.77
2023-01-19T04:44:25.386Z,15.77
2023-01-19T04:46:53.307Z,15.73
2023-01-19T04:49:21.163Z,15.00
2023-01-19T04:51:50.847Z,14.98
2023-01-19T04:54:18.901Z,14.73
2023-01-19T04:56:46.825Z,14.02
2023-01-19T04:59:14.684Z,14.88
2023-01-19T05:01:42.895Z,14.55
2023-01-19T05:04:11.030Z,14.98
2023-01-19T05:06:39.053Z,14.93
2023-01-19T05:09:09.171Z,14.45
2023-01-19T05:11:36.977Z,14.93
2023-01-19T05:14:04.827Z,15.07
2023-01-19T05:16:33.033Z,14.30
2023-01-19T05:19:00.974Z,15.27
2023-01-19T05:21:29.367Z,14.63
2023-01-19T05:23:57.103Z,14.45
2023-01-19T05:26:54.774Z,14.60
2023-01-19T05:29:22.718Z,15.63
2023-01-19T05:43:14.904Z,13.57
2023-01-19T05:45:43.514Z,11.13
2023-01-19T05:48:11.468Z,14.95
2023-01-19T05:50:39.463Z,14.68
2023-01-19T05:53:07.648Z,13.65
2023-01-19T05:55:36.593Z,12.98
2023-01-19T05:58:04.697Z,14.27
2023-01-19T06:00:34.033Z,13.93
2023-01-19T06:03:03.128Z,14.45
2023-01-19T06:05:31.410Z,13.45
2023-01-19T06:07:59.525Z,13.80
2023-01-19T06:10:27.452Z,13.02
2023-01-19T06:12:55.887Z,14.80
2023-01-19T06:15:23.960Z,13.95
2023-01-19T06:17:55.204Z,14.13
2023-01-19T06:20:23.048Z,13.73
2023-01-19T06:22:50.989Z,14.13
2023-01-19T06:25:18.862Z,15.18
2023-01-19T06:27:46.764Z,13.65
2023-01-19T06:30:15.516Z,13.27
2023-01-19T06:32:43.369Z,13.25
2023-01-19T06:35:12.769Z,13.70
2023-01-19T06:37:41.178Z,14.10
2023-01-19T06:40:10.402Z,13.15
2023-01-19T06:42:38.338Z,12.55
2023-01-19T06:45:07.148Z,12.38
2023-01-19T06:47:35.013Z,13.70
2023-01-19T06:50:03.555Z,14.55
2023-01-19T06:52:33.197Z,13.88
2023-01-19T06:55:01.357Z,14.30
2023-01-19T06:57:29.457Z,13.35
2023-01-19T07:00:00.871Z,14.75
2023-01-19T07:02:29.142Z,9.98
2023-01-19T07:04:57.283Z,14.90
2023-01-19T07:07:25.427Z,12.63
2023-01-19T07:09:55.259Z,12.20
2023-01-19T07:12:24.039Z,13.85
2023-01-19T07:14:52.859Z,13.10
2023-01-19T07:17:20.900Z,12.80
2023-01-19T07:23:36.123Z,13.10
2023-01-19T07:26:06.144Z,13.27
2023-01-19T07:28:34.540Z,13.48
2023-01-19T07:31:02.521Z,13.02
2023-01-19T07:33:30.661Z,13.52
2023-01-19T07:35:58.690Z,12.52
2023-01-19T07:38:26.826Z,13.10
2023-01-19T07:41:02.079Z,13.25
2023-01-19T07:43:32.078Z,12.40
2023-01-19T07:46:00.723Z,12.35
2023-01-19T07:48:29.344Z,13.65
2023-01-19T07:51:02.458Z,12.65
2023-01-19T07:53:30.710Z,13.35
2023-01-19T07:55:58.670Z,11.73
2023-01-19T07:58:27.177Z,13.68
2023-01-19T08:00:56.493Z,13.70
2023-01-19T08:03:24.860Z,14.73
2023-01-19T08:05:53.657Z,14.60
2023-01-19T08:08:22.063Z,14.40
2023-01-19T08:10:52.149Z,13.88
2023-01-19T08:13:20.171Z,13.98
2023-01-19T08:15:51.686Z,15.13
2023-01-19T08:18:21.483Z,15.05
2023-01-19T08:20:49.514Z,13.68
2023-01-19T08:23:18.345Z,15.95
2023-01-19T08:25:46.441Z,14.95
2023-01-19T08:28:15.881Z,14.57
2023-01-19T08:30:45.147Z,11.10
2023-01-19T08:33:13.977Z,13.35
2023-01-19T08:35:45.666Z,13.35
2023-01-19T08:38:13.816Z,12.90
2023-01-19T08:40:42.929Z,13.80
2023-01-19T08:43:12.889Z,14.02
2023-01-19T08:45:49.241Z,12.55
2023-01-19T08:48:18.469Z,13.48
2023-01-19T08:50:48.997Z,12.27
2023-01-19T08:53:18.094Z,12.82
2023-01-19T08:55:46.784Z,11.48
2023-01-19T08:58:14.910Z,13.48
2023-01-19T09:00:43.213Z,13.20
2023-01-19T09:03:13.532Z,13.82
2023-01-19T09:05:42.026Z,14.85
2023-01-19T09:08:14.212Z,12.95
2023-01-19T09:10:46.473Z,14.68
2023-01-19T09:13:14.847Z,12.80
2023-01-19T09:15:43.707Z,15.02
2023-01-19T09:18:13.878Z,13.82
2023-01-19T09:21:13.973Z,13.65
2023-01-19T09:23:43.877Z,12.95
2023-01-19T09:26:12.094Z,13.30
2023-01-19T09:28:40.157Z,12.45
2023-01-19T09:31:08.997Z,11.68
2023-01-19T09:33:37.315Z,11.73
2023-01-19T09:36:05.485Z,11.60
2023-01-19T09:38:34.099Z,11.88
2023-01-19T09:41:04.653Z,11.48
2023-01-19T09:43:39.143Z,11.23
2023-01-19T09:46:12.899Z,11.68
2023-01-19T09:48:45.933Z,11.98
2023-01-19T09:51:17.365Z,10.80
2023-01-19T09:53:57.150Z,11.57
2023-01-19T09:56:29.602Z,10.55
2023-01-19T09:58:58.327Z,12.30
2023-01-19T10:01:40.535Z,13.18
2023-01-19T10:04:30.799Z,12.15
2023-01-19T10:07:06.901Z,12.70
2023-01-19T10:09:40.987Z,13.02
2023-01-19T10:12:17.920Z,13.18
2023-01-19T10:14:51.291Z,12.98
2023-01-19T10:17:25.599Z,13.05
2023-01-19T10:19:57.876Z,13.65
2023-01-19T10:22:27.234Z,13.43
2023-01-19T10:24:57.402Z,11.50
2023-01-19T10:27:30.099Z,14.10
2023-01-19T10:29:58.772Z,12.35
2023-01-19T10:32:30.811Z,11.85
2023-01-19T10:37:31.973Z,12.30
2023-01-19T10:40:03.771Z,12.38
2023-01-19T10:42:33.547Z,11.85
2023-01-19T10:45:01.540Z,12.43
2023-01-19T10:47:33.493Z,12.35
2023-01-19T10:50:01.992Z,11.32
2023-01-19T10:52:32.816Z,11.38
2023-01-19T10:55:02.561Z,11.80
2023-01-19T10:57:34.555Z,10.88
2023-01-19T11:02:31.518Z,11.80
2023-01-19T11:05:01.444Z,11.93
2023-01-19T11:07:31.323Z,11.68
2023-01-19T11:10:22.703Z,12.60
2023-01-19T11:13:08.100Z,12.02
2023-01-19T11:15:42.736Z,11.23
2023-01-19T11:18:24.245Z,10.88
2023-01-19T11:20:54.894Z,11.57
2023-01-19T11:23:28.322Z,10.75
2023-01-19T11:26:00.858Z,10.50
2023-01-19T11:28:44.933Z,10.48
2023-01-19T11:31:21.974Z,11.57
2023-01-19T11:33:51.874Z,10.75
2023-01-19T11:36:22.065Z,10.90
2023-01-19T11:38:51.938Z,10.55
2023-01-19T11:41:23.323Z,9.77
2023-01-19T11:44:10.244Z,10.75
2023-01-19T11:47:29.274Z,10.02
2023-01-19T11:50:44.763Z,9.43
2023-01-19T12:01:08.230Z,9.73
2023-01-19T12:03:42.962Z,10.63
2023-01-19T12:06:13.715Z,9.93
2023-01-19T12:09:00.579Z,9.63
2023-01-19T12:12:03.101Z,9.73
2023-01-19T12:15:07.289Z,10.95
2023-01-19T12:21:48.518Z,9.18
2023-01-19T12:25:40.288Z,9.07
2023-01-19T12:28:14.267Z,9.65
2023-01-19T12:30:43.590Z,7.88
2023-01-19T12:33:35.878Z,8.48
2023-01-19T12:36:07.218Z,8.75
2023-01-19T12:38:56.965Z,7.68
2023-01-19T12:41:32.199Z,8.18
2023-01-19T12:44:19.329Z,8.82
2023-01-19T12:46:49.615Z,8.70
2023-01-19T12:49:26.896Z,8.10
2023-01-19T12:51:57.424Z,9.15
2023-01-19T12:54:31.754Z,8.40
2023-01-19T12:57:01.769Z,7.57
2023-01-19T12:59:30.221Z,9.23
2023-01-19T13:02:35.131Z,8.23
2023-01-19T13:05:19.911Z,8.60
2023-01-19T13:08:19.713Z,9.00
2023-01-19T13:11:18.149Z,8.00
2023-01-19T13:13:48.673Z,7.80
2023-01-19T13:16:57.620Z,7.00
2023-01-19T13:19:36.548Z,7.70
2023-01-19T13:22:53.282Z,7.45
2023-01-19T13:25:31.484Z,7.60
2023-01-19T13:28:01.333Z,8.05
2023-01-19T13:30:30.436Z,7.13
2023-01-19T13:33:11.604Z,7.60
2023-01-19T13:35:39.701Z,7.50
2023-01-19T13:38:08.693Z,7.95
2023-01-19T13:40:39.503Z,8.48
2023-01-19T13:43:16.936Z,8.75
2023-01-19T13:45:51.693Z,8.77
2023-01-19T13:48:24.225Z,8.50
2023-01-19T13:51:06.767Z,8.27
2023-01-19T13:53:35.552Z,8.57
2023-01-19T13:56:18.072Z,8.50
2023-01-19T14:03:20.443Z,8.30
2023-01-19T14:05:51.481Z,8.27
2023-01-19T14:08:26.725Z,7.97
2023-01-19T14:11:04.341Z,9.25
2023-01-19T14:20:30.679Z,9.23
2023-01-19T14:22:58.841Z,8.70
2023-01-19T14:25:30.952Z,8.27
2023-01-19T14:30:55.331Z,8.23
2023-01-19T14:33:43.774Z,8.00
2023-01-19T14:36:27.946Z,8.27
2023-01-19T14:38:57.650Z,8.02
2023-01-19T14:41:28.075Z,9.27
2023-01-19T14:43:57.098Z,8.88
2023-01-19T14:46:26.059Z,9.32
2023-01-19T14:49:01.975Z,9.20
2023-01-19T14:51:30.684Z,9.13
2023-01-19T14:54:00.806Z,9.00
2023-01-19T14:56:30.408Z,10.23
2023-01-19T14:58:59.875Z,9.48
2023-01-19T15:01:31.252Z,9.65
2023-01-19T15:04:00.981Z,9.00
2023-01-19T15:06:29.264Z,9.57
2023-01-19T15:08:57.204Z,9.73
2023-01-19T15:11:27.654Z,9.65
2023-01-19T15:13:55.628Z,9.48
2023-01-19T15:16:24.302Z,9.35
2023-01-19T15:18:52.261Z,9.02
2023-01-19T15:21:23.779Z,9.38
2023-01-19T15:23:51.775Z,8.13
2023-01-19T15:26:22.174Z,9.80
2023-01-19T15:28:50.806Z,9.57
2023-01-19T15:31:20.547Z,9.00
2023-01-19T15:33:48.761Z,9.27
2023-01-19T15:36:18.395Z,9.18
2023-01-19T15:38:50.345Z,8.60
2023-01-19T15:41:23.586Z,9.68
2023-01-19T15:43:52.085Z,9.18
2023-01-19T15:46:20.885Z,8.45
2023-01-19T15:48:49.432Z,8.73
2023-01-19T15:51:19.218Z,8.43
2023-01-19T15:53:48.962Z,8.45
2023-01-19T15:56:17.541Z,8.82
2023-01-19T15:58:47.092Z,7.68
2023-01-19T16:01:16.152Z,8.88
2023-01-19T16:03:44.552Z,9.32
2023-01-19T16:06:12.863Z,9.13
2023-01-19T16:08:41.834Z,8.80
2023-01-19T16:11:12.465Z,8.90
2023-01-19T16:13:40.558Z,9.18
2023-01-19T16:16:10.160Z,8.60
2023-01-19T16:18:38.004Z,8.93
2023-01-19T16:21:06.590Z,9.10
2023-01-19T16:23:34.459Z,8.82
2023-01-19T16:26:05.116Z,9.57
2023-01-19T16:28:35.073Z,9.23
2023-01-19T16:31:03.153Z,8.75
2023-01-19T16:33:31.162Z,8.50
2023-01-19T16:35:58.929Z,8.32
2023-01-19T16:38:27.064Z,9.32
2023-01-19T16:40:54.856Z,9.23
2023-01-19T16:43:22.852Z,8.20
2023-01-19T16:45:59.786Z,8.68
2023-01-19T16:48:28.525Z,10.10
2023-01-19T16:51:01.431Z,9.45
2023-01-19T16:53:30.156Z,9.57
2023-01-19T16:55:58.713Z,9.18
2023-01-19T16:58:26.943Z,9.10
2023-01-19T17:00:55.860Z,9.80
2023-01-19T17:03:27.145Z,10.23
2023-01-19T17:05:55.251Z,6.15
2023-01-19T17:08:23.308Z,8.07
2023-01-19T17:10:51.162Z,8.18
2023-01-19T17:13:19.358Z,9.20
2023-01-19T17:15:47.368Z,9.85
2023-01-19T17:18:15.282Z,8.35
2023-01-19T17:20:45.099Z,8.73
2023-01-19T17:23:13.025Z,8.52
2023-01-19T17:25:40.909Z,9.60
2023-01-19T17:28:09.695Z,15.35
2023-01-19T17:30:38.020Z,15.75
2023-01-19T17:41:20.575Z,9.73
2023-01-19T17:44:28.132Z,9.40
2023-01-19T21:06:09.221Z,11.63
2023-01-19T21:08:37.234Z,11.88
2023-01-19T21:11:05.493Z,11.38
2023-01-19T21:13:33.304Z,10.45
2023-01-19T21:16:00.964Z,10.30
2023-01-19T21:18:28.627Z,12.43
2023-01-19T21:20:57.445Z,10.13
2023-01-19T21:23:26.856Z,9.95
2023-01-19T21:25:56.082Z,9.98
2023-01-19T21:28:24.233Z,9.98
2023-01-19T21:30:52.554Z,10.85
2023-01-19T21:33:20.701Z,10.00
2023-01-19T21:35:51.948Z,10.63
2023-01-19T21:38:19.597Z,9.75
2023-01-19T21:40:48.652Z,9.38
2023-01-19T21:43:16.208Z,10.88
2023-01-19T21:45:44.703Z,9.25
2023-01-19T21:48:12.285Z,9.10
2023-01-19T21:50:39.964Z,9.65
2023-01-19T21:53:11.066Z,9.45
2023-01-19T21:55:38.870Z,10.00
2023-01-19T21:58:07.802Z,10.02
2023-01-19T22:00:35.358Z,10.63
2023-01-19T22:03:04.522Z,9.43
2023-01-19T22:05:36.837Z,10.15
2023-01-19T22:08:05.151Z,10.18
2023-01-19T22:10:32.822Z,9.60
2023-01-19T22:13:00.445Z,10.25
2023-01-19T22:15:30.518Z,9.95
2023-01-19T22:17:58.139Z,9.65
2023-01-19T22:20:25.723Z,10.02
2023-01-19T22:22:53.308Z,10.80
2023-01-19T22:25:23.831Z,10.05
2023-01-19T22:27:51.430Z,10.35
2023-01-19T22:30:19.657Z,11.13
2023-01-19T22:32:48.668Z,10.60
2023-01-19T22:35:16.415Z,12.38
2023-01-19T22:37:43.994Z,12.10
2023-01-19T22:40:12.888Z,13.95
2023-01-19T22:42:40.490Z,14.13
2023-01-19T22:45:09.428Z,12.73
2023-01-19T22:47:37.000Z,12.20
2023-01-19T22:50:06.993Z,11.05
2023-01-19T22:52:34.559Z,11.60
2023-01-19T22:55:02.183Z,11.60
2023-01-19T22:57:34.264Z,10.15
2023-01-19T23:00:01.918Z,10.00
2023-01-19T23:02:29.476Z,9.40
2023-01-19T23:04:57.092Z,10.02
2023-01-19T23:07:26.045Z,9.32
2023-01-19T23:09:53.634Z,9.15
2023-01-19T23:12:21.217Z,10.70
2023-01-19T23:14:48.781Z,8.60
2023-01-19T23:17:16.379Z,10.02
2023-01-19T23:19:43.945Z,9.88
2023-01-19T23:22:11.612Z,8.82
2023-01-19T23:24:40.795Z,9.50
2023-01-19T23:27:08.376Z,9.02
2023-01-19T23:29:36.287Z,9.02
2023-01-19T23:32:04.009Z,9.25
2023-01-19T23:34:31.830Z,8.75
2023-01-19T23:36:59.440Z,8.48
2023-01-19T23:39:27.023Z,8.70
2023-01-19T23:41:55.957Z,8.70
2023-01-19T23:44:23.581Z,8.13
2023-01-19T23:46:51.351Z,9.07
2023-01-19T23:49:18.909Z,8.43
2023-01-19T23:51:46.491Z,7.93
2023-01-19T23:54:14.115Z,8.65
2023-01-19T23:56:42.573Z,7.78
2023-01-19T23:59:12.840Z,8.57
